Time;durP1;ratioP1;P1;durP2;ratioP2;P2;SDS_P1;SDS_P2;PMS_P1;PMS_P2;Temp;Humidity;BMP_temperature;BMP_pressure;BME280_temperature;BME280_humidity;BME280_pressure;Samples;Min_cycle;Max_cycle;Signal;HPM_P1;HPM_P2
2023/08/12 00:00:34;;;;;;;36.90;22.05;;;;;;;;;;4896554;28;20046;-78
2023/08/12 00:03:00;;;;;;;36.92;21.88;;;;;;;;;;4908088;28;20055;-78
2023/08/12 00:05:26;;;;;;;34.47;21.08;;;;;;;;;;4901773;28;20066;-79
2023/08/12 00:07:52;;;;;;;37.20;22.20;;;;;;;;;;4888594;28;20365;-79
2023/08/12 00:10:18;;;;;;;32.05;22.33;;;;;;;;;;4905785;28;21829;-79
2023/08/12 00:12:44;;;;;;;33.45;22.80;;;;;;;;;;4895007;28;20794;-79
2023/08/12 00:15:11;;;;;;;41.85;23.95;;;;;;;;;;4890155;28;20055;-79
2023/08/12 00:17:41;;;;;;;35.10;24.50;;;;;;;;;;4903065;28;20047;-79
2023/08/12 00:20:10;;;;;;;47.70;24.63;;;;;;;;;;4902290;28;21906;-79
2023/08/12 00:22:36;;;;;;;35.05;23.80;;;;;;;;;;4890808;28;20139;-79
2023/08/12 00:25:02;;;;;;;39.85;23.15;;;;;;;;;;4907637;28;20039;-80
2023/08/12 00:27:29;;;;;;;37.45;24.80;;;;;;;;;;4905961;28;20039;-79
2023/08/12 00:29:55;;;;;;;39.85;24.85;;;;;;;;;;4911530;28;20078;-79
2023/08/12 00:32:21;;;;;;;35.00;23.52;;;;;;;;;;4922479;28;20047;-79
2023/08/12 00:34:47;;;;;;;32.88;23.17;;;;;;;;;;4903938;28;20058;-78
2023/08/12 00:37:13;;;;;;;28.58;21.80;;;;;;;;;;4898049;28;20097;-79
2023/08/12 00:39:39;;;;;;;32.97;21.45;;;;;;;;;;4907679;28;20782;-80
2023/08/12 00:42:05;;;;;;;33.28;22.58;;;;;;;;;;4908625;28;20464;-78
2023/08/12 00:44:31;;;;;;;32.95;21.38;;;;;;;;;;4904932;28;20051;-79
2023/08/12 00:46:58;;;;;;;35.75;21.90;;;;;;;;;;4905576;28;20065;-79
2023/08/12 00:49:24;;;;;;;37.83;22.35;;;;;;;;;;4917967;28;20512;-79
2023/08/12 00:51:51;;;;;;;34.05;21.92;;;;;;;;;;4902637;28;20659;-80
2023/08/12 00:54:18;;;;;;;29.15;21.42;;;;;;;;;;4901752;28;20036;-79
2023/08/12 00:56:45;;;;;;;31.50;21.05;;;;;;;;;;4903036;28;20047;-80
2023/08/12 00:59:12;;;;;;;33.05;22.40;;;;;;;;;;4904456;28;20159;-79
2023/08/12 01:01:41;;;;;;;32.78;22.52;;;;;;;;;;4901220;28;20055;-78
2023/08/12 01:04:07;;;;;;;31.55;21.13;;;;;;;;;;4910491;28;20470;-80
2023/08/12 01:06:33;;;;;;;29.08;21.60;;;;;;;;;;4905113;28;20143;-78
2023/08/12 01:09:00;;;;;;;30.70;20.35;;;;;;;;;;4896330;28;20074;-79
2023/08/12 01:11:28;;;;;;;30.00;22.48;;;;;;;;;;4906256;28;20457;-79
2023/08/12 01:13:58;;;;;;;33.53;20.55;;;;;;;;;;4909143;28;20488;-79
2023/08/12 01:16:26;;;;;;;29.60;19.92;;;;;;;;;;4914665;28;20086;-79
2023/08/12 01:18:52;;;;;;;24.33;17.40;;;;;;;;;;4896313;28;20499;-79
2023/08/12 01:21:22;;;;;;;24.83;17.10;;;;;;;;;;4906618;28;20118;-80
2023/08/12 01:23:48;;;;;;;27.77;17.15;;;;;;;;;;4909065;28;20460;-80
2023/08/12 01:26:14;;;;;;;20.70;15.82;;;;;;;;;;4896253;28;20416;-78
2023/08/12 01:28:40;;;;;;;21.42;15.27;;;;;;;;;;4908751;28;20126;-78
2023/08/12 01:31:12;;;;;;;21.23;13.98;;;;;;;;;;4909748;28;20040;-79
2023/08/12 01:33:49;;;;;;;23.65;15.43;;;;;;;;;;4897527;28;20169;-79
2023/08/12 01:36:19;;;;;;;22.63;14.52;;;;;;;;;;4907348;28;20058;-78
2023/08/12 01:38:48;;;;;;;22.00;15.60;;;;;;;;;;4905478;28;20054;-79
2023/08/12 01:41:16;;;;;;;22.35;12.77;;;;;;;;;;4907760;28;20135;-79
2023/08/12 01:43:42;;;;;;;21.90;13.48;;;;;;;;;;4902439;28;20063;-79
2023/08/12 01:46:08;;;;;;;18.88;12.55;;;;;;;;;;4923940;28;20039;-79
2023/08/12 01:48:34;;;;;;;20.33;12.07;;;;;;;;;;4905460;28;20042;-80
2023/08/12 01:51:00;;;;;;;15.10;10.82;;;;;;;;;;4905587;28;20054;-79
2023/08/12 01:53:26;;;;;;;17.23;10.90;;;;;;;;;;4893945;28;20046;-80
2023/08/12 01:55:53;;;;;;;16.08;9.45;;;;;;;;;;4890603;28;20046;-79
2023/08/12 01:58:19;;;;;;;12.65;8.65;;;;;;;;;;4919816;28;20058;-79
2023/08/12 02:00:45;;;;;;;14.20;9.13;;;;;;;;;;4901695;28;20095;-79
2023/08/12 02:03:11;;;;;;;13.02;7.85;;;;;;;;;;4923196;28;20657;-78
2023/08/12 02:05:37;;;;;;;13.55;8.15;;;;;;;;;;4909129;28;20059;-79
2023/08/12 02:08:04;;;;;;;10.75;7.95;;;;;;;;;;4894899;28;20071;-78
2023/08/12 02:10:30;;;;;;;16.10;7.70;;;;;;;;;;4910456;28;20403;-78
2023/08/12 02:12:56;;;;;;;11.02;7.22;;;;;;;;;;4897093;28;20133;-78
2023/08/12 02:15:22;;;;;;;12.00;7.75;;;;;;;;;;4899575;28;20372;-79
2023/08/12 02:17:49;;;;;;;13.57;7.47;;;;;;;;;;4922378;28;20509;-79
2023/08/12 02:20:15;;;;;;;11.77;7.88;;;;;;;;;;4896222;28;20048;-78
2023/08/12 02:22:41;;;;;;;14.10;7.72;;;;;;;;;;4908141;28;20047;-80
2023/08/12 02:25:10;;;;;;;10.20;7.32;;;;;;;;;;4904364;28;21090;-80
2023/08/12 02:27:36;;;;;;;13.05;7.90;;;;;;;;;;4899408;28;20185;-80
2023/08/12 02:30:02;;;;;;;14.48;7.25;;;;;;;;;;4904610;28;20039;-80
2023/08/12 02:32:28;;;;;;;10.93;6.90;;;;;;;;;;4919537;28;22111;-79
2023/08/12 02:34:55;;;;;;;12.50;7.70;;;;;;;;;;4907436;28;20047;-80
2023/08/12 02:37:21;;;;;;;11.10;7.07;;;;;;;;;;4912542;28;20130;-80
2023/08/12 02:39:47;;;;;;;11.23;7.40;;;;;;;;;;4903909;28;20047;-79
2023/08/12 02:42:13;;;;;;;14.40;6.80;;;;;;;;;;4908850;28;20051;-79
2023/08/12 02:44:40;;;;;;;13.65;7.05;;;;;;;;;;4895660;28;20059;-78
2023/08/12 02:47:06;;;;;;;11.82;7.95;;;;;;;;;;4918696;28;20128;-78
2023/08/12 02:49:37;;;;;;;12.18;6.90;;;;;;;;;;4904362;28;20072;-79
2023/08/12 02:52:03;;;;;;;12.43;7.43;;;;;;;;;;4894241;28;20035;-79
2023/08/12 02:54:30;;;;;;;11.70;7.28;;;;;;;;;;4887154;28;20160;-80
2023/08/12 02:56:56;;;;;;;11.73;6.25;;;;;;;;;;4902547;28;20051;-80
2023/08/12 02:59:22;;;;;;;12.20;7.32;;;;;;;;;;4903014;28;20054;-79
2023/08/12 03:01:48;;;;;;;11.60;6.72;;;;;;;;;;4907393;28;20126;-79
2023/08/12 03:04:14;;;;;;;13.38;6.38;;;;;;;;;;4894977;28;20579;-80
2023/08/12 03:06:40;;;;;;;10.88;7.10;;;;;;;;;;4895057;28;20073;-80
2023/08/12 03:09:06;;;;;;;14.32;7.55;;;;;;;;;;4926408;28;20048;-80
2023/08/12 03:11:32;;;;;;;11.40;6.75;;;;;;;;;;4911592;28;20047;-80
2023/08/12 03:13:59;;;;;;;11.85;7.60;;;;;;;;;;4906115;28;20452;-80
2023/08/12 03:16:26;;;;;;;11.55;6.78;;;;;;;;;;4882874;28;20093;-80
2023/08/12 03:18:52;;;;;;;10.88;7.03;;;;;;;;;;4906274;28;20051;-79
2023/08/12 03:21:18;;;;;;;13.75;7.47;;;;;;;;;;4899154;28;20109;-80
2023/08/12 03:23:44;;;;;;;14.05;7.43;;;;;;;;;;4908201;28;20043;-79
2023/08/12 03:26:11;;;;;;;11.15;7.22;;;;;;;;;;4889595;28;20205;-80
2023/08/12 03:28:39;;;;;;;11.10;7.40;;;;;;;;;;4895820;28;20150;-80
2023/08/12 03:31:05;;;;;;;12.30;8.15;;;;;;;;;;4924415;28;20047;-79
2023/08/12 03:33:33;;;;;;;12.10;7.88;;;;;;;;;;4907882;28;20042;-79
2023/08/12 03:35:59;;;;;;;11.68;7.93;;;;;;;;;;4905963;28;20070;-79
2023/08/12 03:38:25;;;;;;;17.48;8.45;;;;;;;;;;4903078;28;20077;-79
2023/08/12 03:40:52;;;;;;;13.07;7.90;;;;;;;;;;4907698;28;20118;-80
2023/08/12 03:43:18;;;;;;;15.40;8.85;;;;;;;;;;4896413;28;20066;-79
2023/08/12 03:45:44;;;;;;;9.48;7.13;;;;;;;;;;4905756;28;20090;-80
2023/08/12 03:48:11;;;;;;;13.73;8.02;;;;;;;;;;4920469;28;20053;-79
2023/08/12 03:50:37;;;;;;;13.82;7.72;;;;;;;;;;4906103;28;20059;-80
2023/08/12 03:53:04;;;;;;;20.08;9.20;;;;;;;;;;4906916;28;20609;-79
2023/08/12 03:55:33;;;;;;;14.00;7.72;;;;;;;;;;4902490;28;20143;-78
2023/08/12 03:57:59;;;;;;;15.95;8.57;;;;;;;;;;4887817;28;20055;-78
2023/08/12 04:00:26;;;;;;;16.90;8.60;;;;;;;;;;4902575;28;20051;-78
2023/08/12 04:02:52;;;;;;;14.00;9.05;;;;;;;;;;4906803;28;20353;-78
2023/08/12 04:05:18;;;;;;;18.30;8.32;;;;;;;;;;4921816;28;20051;-78
2023/08/12 04:07:44;;;;;;;16.63;8.70;;;;;;;;;;4907171;28;20548;-78
2023/08/12 04:10:10;;;;;;;16.83;9.25;;;;;;;;;;4906397;28;20118;-79
2023/08/12 04:12:37;;;;;;;12.93;8.63;;;;;;;;;;4919699;28;20098;-79
2023/08/12 04:15:05;;;;;;;13.82;9.10;;;;;;;;;;4905509;28;20055;-80
2023/08/12 04:17:32;;;;;;;18.08;10.13;;;;;;;;;;4905132;28;20525;-79
2023/08/12 04:19:58;;;;;;;22.70;10.43;;;;;;;;;;4897360;28;20535;-79
2023/08/12 04:22:24;;;;;;;13.90;9.35;;;;;;;;;;4906638;28;20086;-77
2023/08/12 04:24:51;;;;;;;23.63;10.32;;;;;;;;;;4922408;28;20050;-78
2023/08/12 04:27:17;;;;;;;13.00;9.38;;;;;;;;;;4909210;28;20056;-78
2023/08/12 04:29:43;;;;;;;15.65;10.25;;;;;;;;;;4909922;28;20051;-78
2023/08/12 04:32:09;;;;;;;16.90;10.40;;;;;;;;;;4904412;28;20039;-79
2023/08/12 04:34:35;;;;;;;21.40;10.50;;;;;;;;;;4901757;28;20202;-78
2023/08/12 04:37:01;;;;;;;21.00;11.05;;;;;;;;;;4914697;28;20043;-78
2023/08/12 04:39:27;;;;;;;15.85;11.00;;;;;;;;;;4898224;28;20503;-78
2023/08/12 04:41:53;;;;;;;21.30;11.52;;;;;;;;;;4892885;28;20087;-79
2023/08/12 04:44:19;;;;;;;20.13;11.38;;;;;;;;;;4907204;28;20071;-78
2023/08/12 04:46:47;;;;;;;20.40;11.15;;;;;;;;;;4926403;28;20048;-78
2023/08/12 04:49:13;;;;;;;19.85;11.13;;;;;;;;;;4887868;28;20047;-80
2023/08/12 04:51:39;;;;;;;20.52;10.73;;;;;;;;;;4896158;28;20388;-79
2023/08/12 04:54:07;;;;;;;17.02;10.73;;;;;;;;;;4892716;28;20082;-79
2023/08/12 04:56:33;;;;;;;18.20;10.98;;;;;;;;;;4908195;28;20228;-78
2023/08/12 04:58:59;;;;;;;21.48;12.43;;;;;;;;;;4914306;28;20113;-77
2023/08/12 05:01:25;;;;;;;20.42;12.40;;;;;;;;;;4895106;28;20154;-79
2023/08/12 05:03:52;;;;;;;24.42;12.15;;;;;;;;;;4908282;28;20062;-79
2023/08/12 05:06:18;;;;;;;22.30;12.77;;;;;;;;;;4902462;28;20094;-79
2023/08/12 05:08:44;;;;;;;22.85;12.82;;;;;;;;;;4905710;28;20137;-79
2023/08/12 05:11:10;;;;;;;21.13;12.63;;;;;;;;;;4912240;28;20039;-79
2023/08/12 05:13:36;;;;;;;24.45;14.30;;;;;;;;;;4911252;28;20166;-79
2023/08/12 05:16:02;;;;;;;18.70;13.10;;;;;;;;;;4891531;28;20027;-79
2023/08/12 05:18:29;;;;;;;21.83;13.35;;;;;;;;;;4890906;28;20035;-79
2023/08/12 05:20:55;;;;;;;23.15;12.88;;;;;;;;;;4920191;28;20151;-79
2023/08/12 05:23:21;;;;;;;24.77;13.80;;;;;;;;;;4914905;28;20053;-79
2023/08/12 05:25:48;;;;;;;23.95;14.65;;;;;;;;;;4903724;28;20171;-78
2023/08/12 05:28:14;;;;;;;22.20;13.75;;;;;;;;;;4903533;28;20133;-79
2023/08/12 05:30:40;;;;;;;25.23;14.43;;;;;;;;;;4889143;28;20047;-79
2023/08/12 05:33:06;;;;;;;24.42;13.60;;;;;;;;;;4892350;28;21279;-78
2023/08/12 05:35:36;;;;;;;24.13;14.23;;;;;;;;;;4920922;28;20051;-79
2023/08/12 05:38:02;;;;;;;22.30;14.25;;;;;;;;;;4906273;28;20050;-79
2023/08/12 05:40:28;;;;;;;23.23;13.65;;;;;;;;;;4907940;28;20052;-79
2023/08/12 05:42:56;;;;;;;22.23;14.43;;;;;;;;;;4907137;28;20075;-77
2023/08/12 05:45:23;;;;;;;21.48;13.80;;;;;;;;;;4903900;28;20051;-78
2023/08/12 05:47:49;;;;;;;22.60;14.75;;;;;;;;;;4925104;28;20953;-78
2023/08/12 05:50:15;;;;;;;26.70;14.93;;;;;;;;;;4897404;28;20736;-78
2023/08/12 05:52:41;;;;;;;19.70;14.07;;;;;;;;;;4905416;28;20054;-79
2023/08/12 05:55:09;;;;;;;22.77;14.65;;;;;;;;;;4928000;28;20130;-78
2023/08/12 05:57:35;;;;;;;26.33;15.18;;;;;;;;;;4895936;28;20047;-79
2023/08/12 06:00:02;;;;;;;23.77;14.75;;;;;;;;;;4907715;28;20044;-79
2023/08/12 06:02:28;;;;;;;21.38;14.13;;;;;;;;;;4908347;28;20043;-79
2023/08/12 06:04:54;;;;;;;20.52;12.77;;;;;;;;;;4878599;29;20092;-80
2023/08/12 06:07:20;;;;;;;25.88;14.93;;;;;;;;;;4889009;29;20516;-79
2023/08/12 06:09:47;;;;;;;20.65;13.15;;;;;;;;;;4921235;28;20184;-79
2023/08/12 06:12:13;;;;;;;17.30;13.10;;;;;;;;;;4894668;29;20684;-76
2023/08/12 06:14:39;;;;;;;18.77;12.35;;;;;;;;;;4891320;29;20052;-78
2023/08/12 06:17:05;;;;;;;19.83;12.95;;;;;;;;;;4899990;28;20052;-77
2023/08/12 06:19:31;;;;;;;19.50;12.88;;;;;;;;;;4902692;28;20634;-79
2023/08/12 06:21:57;;;;;;;21.20;12.15;;;;;;;;;;4908437;29;20366;-78
2023/08/12 06:24:23;;;;;;;18.40;12.68;;;;;;;;;;4910013;28;20054;-78
2023/08/12 06:26:49;;;;;;;19.02;12.88;;;;;;;;;;4894895;29;20040;-78
2023/08/12 06:29:16;;;;;;;19.27;12.18;;;;;;;;;;4912570;29;20044;-78
2023/08/12 06:31:42;;;;;;;19.83;12.70;;;;;;;;;;4915284;28;20618;-80
2023/08/12 06:34:08;;;;;;;16.83;11.27;;;;;;;;;;4912995;29;20130;-79
2023/08/12 06:36:34;;;;;;;17.80;12.38;;;;;;;;;;4910087;28;20075;-79
2023/08/12 06:39:00;;;;;;;18.20;12.50;;;;;;;;;;4899479;29;20040;-79
2023/08/12 06:41:26;;;;;;;16.75;11.95;;;;;;;;;;4901909;29;20143;-79
2023/08/12 06:43:53;;;;;;;17.02;11.90;;;;;;;;;;4910369;28;20047;-78
2023/08/12 06:46:19;;;;;;;17.00;11.02;;;;;;;;;;4912506;28;20115;-79
2023/08/12 06:48:45;;;;;;;14.68;11.02;;;;;;;;;;4905718;29;20036;-80
2023/08/12 06:51:11;;;;;;;16.42;10.98;;;;;;;;;;4910890;28;20048;-79
2023/08/12 06:53:38;;;;;;;16.90;11.07;;;;;;;;;;4878424;29;20043;-78
2023/08/12 06:56:04;;;;;;;17.75;11.38;;;;;;;;;;4906314;28;20035;-79
2023/08/12 06:58:31;;;;;;;19.05;11.85;;;;;;;;;;4896492;29;20043;-79
2023/08/12 07:00:58;;;;;;;18.15;11.40;;;;;;;;;;4906458;28;20496;-79
2023/08/12 07:03:25;;;;;;;17.92;11.15;;;;;;;;;;4891111;28;20404;-80
2023/08/12 07:05:53;;;;;;;16.83;11.68;;;;;;;;;;4915071;28;20703;-80
2023/08/12 07:08:19;;;;;;;21.98;11.45;;;;;;;;;;4927899;28;20043;-80
2023/08/12 07:10:45;;;;;;;15.73;11.70;;;;;;;;;;4913681;28;20053;-80
2023/08/12 07:13:11;;;;;;;16.13;11.80;;;;;;;;;;4912250;28;20779;-80
2023/08/12 07:15:38;;;;;;;15.77;10.60;;;;;;;;;;4906023;28;20051;-76
2023/08/12 07:18:04;;;;;;;15.93;11.23;;;;;;;;;;4903953;28;20126;-80
2023/08/12 07:20:30;;;;;;;14.60;10.90;;;;;;;;;;4905120;28;20106;-81
2023/08/12 07:22:56;;;;;;;18.73;11.65;;;;;;;;;;4893569;28;20079;-81
2023/08/12 07:25:22;;;;;;;21.50;12.70;;;;;;;;;;4928953;28;20067;-79
2023/08/12 07:27:48;;;;;;;17.67;12.07;;;;;;;;;;4898985;28;20480;-80
2023/08/12 07:30:14;;;;;;;22.15;13.13;;;;;;;;;;4904092;28;20043;-80
2023/08/12 07:32:40;;;;;;;22.05;13.05;;;;;;;;;;4908672;28;20586;-81
2023/08/12 07:35:09;;;;;;;21.83;12.80;;;;;;;;;;4891809;28;20161;-81
2023/08/12 07:37:35;;;;;;;20.00;12.63;;;;;;;;;;4925334;28;20044;-80
2023/08/12 07:40:01;;;;;;;16.77;13.45;;;;;;;;;;4908751;28;20062;-80
2023/08/12 07:42:27;;;;;;;24.27;13.80;;;;;;;;;;4915981;28;20047;-81
2023/08/12 07:44:53;;;;;;;18.75;13.70;;;;;;;;;;4924431;28;20152;-81
2023/08/12 07:47:19;;;;;;;21.83;13.57;;;;;;;;;;4912073;28;20051;-82
2023/08/12 07:49:45;;;;;;;22.95;13.85;;;;;;;;;;4904984;28;20060;-81
2023/08/12 07:52:12;;;;;;;19.38;13.93;;;;;;;;;;4904065;28;20457;-80
2023/08/12 07:54:38;;;;;;;20.23;14.95;;;;;;;;;;4908043;28;20052;-81
2023/08/12 07:57:04;;;;;;;22.50;13.63;;;;;;;;;;4904118;28;20083;-80
2023/08/12 07:59:30;;;;;;;25.17;14.88;;;;;;;;;;4906326;28;20394;-81
2023/08/12 08:01:56;;;;;;;27.75;14.75;;;;;;;;;;4920348;28;20042;-81
2023/08/12 08:04:22;;;;;;;24.15;14.90;;;;;;;;;;4889357;28;20139;-80
2023/08/12 08:06:48;;;;;;;20.77;13.88;;;;;;;;;;4924192;28;20096;-80
2023/08/12 08:09:14;;;;;;;22.58;15.30;;;;;;;;;;4905616;28;20043;-80
2023/08/12 08:11:41;;;;;;;29.20;16.15;;;;;;;;;;4923472;28;20066;-80
2023/08/12 08:14:07;;;;;;;20.65;15.32;;;;;;;;;;4909037;28;20407;-81
2023/08/12 08:16:33;;;;;;;26.73;14.93;;;;;;;;;;4901989;28;20050;-81
2023/08/12 08:18:59;;;;;;;22.30;15.07;;;;;;;;;;4925968;28;20050;-80
2023/08/12 08:21:26;;;;;;;27.17;15.85;;;;;;;;;;4908013;28;20047;-81
2023/08/12 08:23:52;;;;;;;24.58;15.70;;;;;;;;;;4924880;28;20055;-81
2023/08/12 08:26:21;;;;;;;24.00;15.43;;;;;;;;;;4909180;28;22065;-81
2023/08/12 08:28:47;;;;;;;23.33;15.98;;;;;;;;;;4932650;28;20154;-82
2023/08/12 08:31:13;;;;;;;25.50;16.35;;;;;;;;;;4908807;28;20051;-81
2023/08/12 08:33:39;;;;;;;24.13;15.63;;;;;;;;;;4903859;28;20078;-79
2023/08/12 08:36:06;;;;;;;23.02;16.38;;;;;;;;;;4900432;28;20058;-80
2023/08/12 08:38:34;;;;;;;24.90;16.50;;;;;;;;;;4903416;28;20061;-81
2023/08/12 08:41:01;;;;;;;22.50;17.02;;;;;;;;;;4929351;28;20055;-80
2023/08/12 08:43:28;;;;;;;29.92;18.45;;;;;;;;;;4891104;28;20491;-80
2023/08/12 08:45:54;;;;;;;27.55;16.40;;;;;;;;;;4894205;28;20054;-80
2023/08/12 08:48:21;;;;;;;21.67;16.23;;;;;;;;;;4890053;28;20043;-81
2023/08/12 08:50:48;;;;;;;23.42;16.27;;;;;;;;;;4906655;28;20047;-81
2023/08/12 08:53:14;;;;;;;23.83;16.58;;;;;;;;;;4908922;28;20142;-79
2023/08/12 08:55:41;;;;;;;25.70;17.38;;;;;;;;;;4910497;28;20114;-79
2023/08/12 08:58:08;;;;;;;22.52;17.67;;;;;;;;;;4897683;28;20051;-79
2023/08/12 09:00:34;;;;;;;27.23;18.40;;;;;;;;;;4911011;28;20555;-79
2023/08/12 09:03:02;;;;;;;25.08;17.70;;;;;;;;;;4911324;28;20075;-79
2023/08/12 09:05:29;;;;;;;27.02;17.80;;;;;;;;;;4897800;28;20115;-80
2023/08/12 09:07:56;;;;;;;26.27;18.30;;;;;;;;;;4913414;28;22046;-79
2023/08/12 09:10:24;;;;;;;25.55;18.17;;;;;;;;;;4922632;28;20040;-79
2023/08/12 09:12:52;;;;;;;26.80;18.88;;;;;;;;;;4919566;28;20043;-79
2023/08/12 09:15:18;;;;;;;25.33;19.25;;;;;;;;;;4915271;28;20074;-79
2023/08/12 09:17:47;;;;;;;28.75;19.35;;;;;;;;;;4897636;28;20063;-79
2023/08/12 09:20:14;;;;;;;28.00;20.35;;;;;;;;;;4918961;28;20046;-79
2023/08/12 09:22:43;;;;;;;27.88;20.98;;;;;;;;;;4931655;28;20058;-81
2023/08/12 09:25:46;;;;;;;;;;;;;;;;;;;;;
2023/08/12 09:28:33;;;;;;;27.95;21.52;;;;;;;;;;4883423;29;20120;-81
2023/08/12 09:34:45;;;;;;;37.55;26.00;;;;;;;;;;4806126;29;20050;-81
2023/08/12 09:37:23;;;;;;;33.33;25.23;;;;;;;;;;4838228;29;20053;-78
2023/08/12 09:39:50;;;;;;;40.95;26.05;;;;;;;;;;4883090;28;20051;-80
2023/08/12 09:42:19;;;;;;;37.95;25.25;;;;;;;;;;4914112;28;20133;-79
2023/08/12 09:44:45;;;;;;;31.60;24.98;;;;;;;;;;4913292;28;20579;-80
2023/08/12 09:47:15;;;;;;;33.53;25.20;;;;;;;;;;4928878;28;20110;-79
2023/08/12 09:49:41;;;;;;;38.55;26.77;;;;;;;;;;4916553;28;20074;-80
2023/08/12 09:52:08;;;;;;;39.17;27.40;;;;;;;;;;4891011;28;20058;-79
2023/08/12 09:54:37;;;;;;;41.13;27.60;;;;;;;;;;4909449;28;20075;-80
2023/08/12 09:57:08;;;;;;;38.75;28.15;;;;;;;;;;4925583;28;20039;-79
2023/08/12 09:59:35;;;;;;;45.50;28.05;;;;;;;;;;4913224;28;20145;-79
2023/08/12 10:02:08;;;;;;;44.65;26.92;;;;;;;;;;4912655;28;20138;-80
2023/08/12 10:04:42;;;;;;;35.88;24.30;;;;;;;;;;4888726;28;20043;-80
2023/08/12 10:07:10;;;;;;;41.22;28.20;;;;;;;;;;4906031;28;20054;-79
2023/08/12 10:09:37;;;;;;;38.72;26.98;;;;;;;;;;4906408;28;20121;-79
2023/08/12 10:12:04;;;;;;;39.83;30.05;;;;;;;;;;4893387;28;20182;-79
2023/08/12 10:14:30;;;;;;;40.13;28.33;;;;;;;;;;4903518;28;20142;-80
2023/08/12 10:16:57;;;;;;;38.65;26.67;;;;;;;;;;4906932;28;20039;-80
2023/08/12 10:19:25;;;;;;;35.00;24.63;;;;;;;;;;4892200;28;20173;-79
2023/08/12 10:21:53;;;;;;;31.75;24.00;;;;;;;;;;4902255;28;20075;-79
2023/08/12 10:24:20;;;;;;;34.30;24.60;;;;;;;;;;4903676;28;20043;-79
2023/08/12 10:26:46;;;;;;;38.33;26.65;;;;;;;;;;4910277;28;20059;-79
2023/08/12 10:29:12;;;;;;;39.83;26.02;;;;;;;;;;4909504;28;20510;-78
2023/08/12 10:31:40;;;;;;;34.90;25.75;;;;;;;;;;4896652;28;20054;-79
2023/08/12 10:34:06;;;;;;;41.33;29.15;;;;;;;;;;4911175;28;20098;-80
2023/08/12 10:36:34;;;;;;;41.60;30.52;;;;;;;;;;4895528;28;20052;-80
2023/08/12 10:39:01;;;;;;;44.63;29.52;;;;;;;;;;4926417;28;20053;-79
2023/08/12 10:41:27;;;;;;;49.47;28.75;;;;;;;;;;4911151;28;20165;-79
2023/08/12 10:44:01;;;;;;;48.00;29.65;;;;;;;;;;4911716;28;20660;-80
2023/08/12 10:46:37;;;;;;;37.50;28.58;;;;;;;;;;4912899;28;20071;-80
2023/08/12 10:49:04;;;;;;;44.75;28.35;;;;;;;;;;4912575;28;20156;-80
2023/08/12 10:51:41;;;;;;;41.05;28.25;;;;;;;;;;4930432;28;20044;-81
2023/08/12 10:54:33;;;;;;;33.55;25.13;;;;;;;;;;4934270;28;20070;-82
2023/08/12 10:57:05;;;;;;;37.15;26.23;;;;;;;;;;4908315;28;20109;-82
2023/08/12 10:59:47;;;;;;;42.97;29.17;;;;;;;;;;4904089;28;20223;-81
2023/08/12 11:02:19;;;;;;;44.25;28.42;;;;;;;;;;4911845;28;20460;-82
2023/08/12 11:04:49;;;;;;;42.45;28.00;;;;;;;;;;4901535;28;20066;-81
2023/08/12 11:07:23;;;;;;;42.35;26.30;;;;;;;;;;4897356;28;20507;-82
2023/08/12 11:09:53;;;;;;;34.60;25.08;;;;;;;;;;4912709;28;20058;-82
2023/08/12 11:12:28;;;;;;;37.97;25.70;;;;;;;;;;4896101;28;20043;-82
2023/08/12 11:14:56;;;;;;;36.10;26.08;;;;;;;;;;4910290;28;20089;-81
2023/08/12 11:17:29;;;;;;;33.60;24.33;;;;;;;;;;4908609;28;20047;-81
2023/08/12 11:19:56;;;;;;;27.13;19.90;;;;;;;;;;4900149;28;20039;-81
2023/08/12 11:22:23;;;;;;;28.25;21.70;;;;;;;;;;4912103;28;20047;-81
2023/08/12 11:24:57;;;;;;;21.08;18.33;;;;;;;;;;4913071;28;20991;-82
2023/08/12 11:27:29;;;;;;;14.32;11.80;;;;;;;;;;4921339;28;20051;-82
2023/08/12 11:33:04;;;;;;;5.63;3.92;;;;;;;;;;4927304;28;20047;-82
2023/08/12 11:35:31;;;;;;;5.97;4.22;;;;;;;;;;4913945;28;20047;-81
2023/08/12 11:37:58;;;;;;;6.50;4.38;;;;;;;;;;4919344;28;20046;-80
2023/08/12 11:40:29;;;;;;;8.52;5.80;;;;;;;;;;4915883;28;20134;-79
2023/08/12 11:42:55;;;;;;;6.63;5.50;;;;;;;;;;4901604;28;20051;-79
2023/08/12 11:45:23;;;;;;;7.07;6.38;;;;;;;;;;4907240;28;20751;-80
2023/08/12 11:47:52;;;;;;;9.38;6.93;;;;;;;;;;4907226;28;20580;-79
2023/08/12 11:50:19;;;;;;;8.02;6.70;;;;;;;;;;4907889;28;20054;-80
2023/08/12 11:52:46;;;;;;;8.70;6.43;;;;;;;;;;4895737;28;20046;-79
2023/08/12 11:55:13;;;;;;;7.53;6.78;;;;;;;;;;4895821;28;20509;-79
2023/08/12 11:57:45;;;;;;;6.35;4.72;;;;;;;;;;4917214;28;20099;-79
2023/08/12 12:00:15;;;;;;;5.32;4.07;;;;;;;;;;4921340;28;20446;-80
2023/08/12 12:02:42;;;;;;;4.57;3.67;;;;;;;;;;4921355;28;20177;-81
2023/08/12 12:05:10;;;;;;;5.63;4.05;;;;;;;;;;4900655;28;20096;-79
2023/08/12 12:07:37;;;;;;;3.70;3.30;;;;;;;;;;4921309;28;20046;-79
2023/08/12 12:10:05;;;;;;;4.80;3.70;;;;;;;;;;4921062;28;21123;-78
2023/08/12 12:12:35;;;;;;;5.30;3.75;;;;;;;;;;4905199;28;21032;-79
2023/08/12 12:15:01;;;;;;;3.20;2.90;;;;;;;;;;4911245;28;20082;-80
2023/08/12 12:17:27;;;;;;;3.13;2.30;;;;;;;;;;4919941;28;20117;-78
2023/08/12 12:19:57;;;;;;;4.45;2.80;;;;;;;;;;4897797;28;20494;-80
2023/08/12 12:22:30;;;;;;;2.58;2.33;;;;;;;;;;4920443;28;20621;-77
2023/08/12 12:25:07;;;;;;;2.97;2.63;;;;;;;;;;4909177;28;20963;-81
2023/08/12 12:27:34;;;;;;;3.58;2.03;;;;;;;;;;4901888;28;20047;-79
2023/08/12 12:30:00;;;;;;;2.88;1.95;;;;;;;;;;4920423;28;20043;-78
2023/08/12 12:32:26;;;;;;;3.58;2.63;;;;;;;;;;4899013;28;20042;-77
2023/08/12 12:34:55;;;;;;;2.75;2.40;;;;;;;;;;4914912;28;20077;-77
2023/08/12 12:37:21;;;;;;;7.35;2.85;;;;;;;;;;4910056;28;20074;-78
2023/08/12 12:39:47;;;;;;;8.75;3.05;;;;;;;;;;4922601;28;20093;-78
2023/08/12 12:42:14;;;;;;;8.07;3.42;;;;;;;;;;4912489;28;20047;-78
2023/08/12 12:44:40;;;;;;;12.02;3.90;;;;;;;;;;4907502;28;20121;-78
2023/08/12 12:47:06;;;;;;;12.85;3.25;;;;;;;;;;4892937;28;20099;-79
2023/08/12 12:49:32;;;;;;;6.05;2.75;;;;;;;;;;4907041;28;20610;-78
2023/08/12 12:52:01;;;;;;;9.18;3.47;;;;;;;;;;4914336;28;20047;-79
2023/08/12 12:54:27;;;;;;;12.50;3.80;;;;;;;;;;4920246;28;20054;-79
2023/08/12 12:56:53;;;;;;;9.48;3.47;;;;;;;;;;4919239;28;20062;-81
2023/08/12 12:59:19;;;;;;;9.48;3.83;;;;;;;;;;4906484;28;20147;-79
2023/08/12 13:01:48;;;;;;;14.60;3.95;;;;;;;;;;4906455;28;20411;-80
2023/08/12 13:04:17;;;;;;;10.25;3.42;;;;;;;;;;4896064;28;20047;-81
2023/08/12 13:06:46;;;;;;;9.57;3.75;;;;;;;;;;4915929;28;20074;-80
2023/08/12 13:09:33;;;;;;;7.38;3.30;;;;;;;;;;4912712;28;20046;-80
2023/08/12 13:11:59;;;;;;;9.82;4.07;;;;;;;;;;4886000;28;20167;-80
2023/08/12 13:14:25;;;;;;;7.57;3.75;;;;;;;;;;4908624;28;20127;-80
2023/08/12 13:16:51;;;;;;;15.70;4.50;;;;;;;;;;4903992;28;20047;-81
2023/08/12 13:19:17;;;;;;;10.10;3.40;;;;;;;;;;4880521;28;20047;-81
2023/08/12 13:21:43;;;;;;;7.18;3.60;;;;;;;;;;4925556;28;20053;-80
2023/08/12 13:24:09;;;;;;;9.52;3.85;;;;;;;;;;4891667;28;20112;-81
2023/08/12 13:26:36;;;;;;;7.35;3.00;;;;;;;;;;4924443;28;20162;-81
2023/08/12 13:29:02;;;;;;;5.25;2.70;;;;;;;;;;4897741;28;20039;-81
2023/08/12 13:31:28;;;;;;;9.63;3.80;;;;;;;;;;4890797;28;20054;-81
2023/08/12 13:33:54;;;;;;;7.28;3.60;;;;;;;;;;4901910;28;21717;-81
2023/08/12 13:36:20;;;;;;;9.18;3.85;;;;;;;;;;4893474;28;20054;-81
2023/08/12 13:38:47;;;;;;;8.75;3.67;;;;;;;;;;4901112;28;20107;-80
2023/08/12 13:41:15;;;;;;;11.23;3.80;;;;;;;;;;4891867;28;20066;-80
2023/08/12 13:43:41;;;;;;;9.75;3.65;;;;;;;;;;4888965;28;20035;-80
2023/08/12 13:46:10;;;;;;;8.75;3.80;;;;;;;;;;4902733;28;20173;-79
2023/08/12 13:48:36;;;;;;;6.75;2.58;;;;;;;;;;4867317;28;20535;-80
2023/08/12 13:51:03;;;;;;;6.88;2.85;;;;;;;;;;4885039;28;20051;-80
2023/08/12 13:53:29;;;;;;;10.20;2.65;;;;;;;;;;4913686;28;20122;-79
2023/08/12 13:55:55;;;;;;;9.75;3.15;;;;;;;;;;4901406;28;20372;-80
2023/08/12 13:58:26;;;;;;;5.85;2.42;;;;;;;;;;4889345;28;20049;-79
2023/08/12 14:00:53;;;;;;;6.18;2.85;;;;;;;;;;4902434;28;20043;-79
2023/08/12 14:03:19;;;;;;;5.28;2.55;;;;;;;;;;4905156;28;22039;-79
2023/08/12 14:05:47;;;;;;;11.52;3.95;;;;;;;;;;4887265;28;20157;-79
2023/08/12 14:08:14;;;;;;;8.63;2.95;;;;;;;;;;4903993;28;20101;-79
2023/08/12 14:10:42;;;;;;;7.95;2.95;;;;;;;;;;4880118;28;20057;-79
2023/08/12 14:13:09;;;;;;;11.27;3.15;;;;;;;;;;4895336;28;20047;-79
2023/08/12 14:15:40;;;;;;;9.57;3.03;;;;;;;;;;4901213;28;20069;-78
2023/08/12 14:18:06;;;;;;;9.60;3.30;;;;;;;;;;4908628;28;20053;-78
2023/08/12 14:20:32;;;;;;;13.82;4.47;;;;;;;;;;4909730;28;20047;-78
2023/08/12 14:23:04;;;;;;;10.48;3.35;;;;;;;;;;4902720;28;20126;-78
2023/08/12 14:25:33;;;;;;;11.63;3.35;;;;;;;;;;4903450;28;20052;-78
2023/08/12 14:27:59;;;;;;;11.55;3.35;;;;;;;;;;4912023;28;20043;-78
2023/08/12 14:30:26;;;;;;;9.60;4.05;;;;;;;;;;4913042;28;20730;-79
2023/08/12 14:32:52;;;;;;;11.13;3.55;;;;;;;;;;4912037;28;20153;-79